Minnekata, South Dakota
Current Conditions -  °F | °C
As of 1:53 AM on Wednesday 26 Nov 2014 (Local Time) from KCUT Reporting Station
Overcast Overcast  
Wind Chill: 15°   Ceiling: 11000
Heat Index: 23°   Visibility: 10mi
Dew Point: 14°   Wind: 7mph
Humidity: 68%   Direction: 320°NW
Pressure: 30.04"   Gusts: NA
Location:  43.346°N, 103.483°W
Report Text: KCUT 260853Z AUTO 32006KT 10SM SCT023 OVC110 M05/M10 A3004 RMK AO2 SLP207 60000 T10501100 51025
Loading
Personal Weather Stations






























Interactive Weather Map New forecast layout! Learn more

10-Day Weather Forecast

Advertisements
Track Severe Weather on mobile